sensor_id;sensor_type;location;lat;lon;timestamp;temperature;humidity
11112;DHT22;5609;49.466;8.468;2023-04-01T00:01:28;10.40;99.90
11112;DHT22;5609;49.466;8.468;2023-04-01T00:03:55;10.30;99.90
11112;DHT22;5609;49.466;8.468;2023-04-01T00:06:22;10.40;99.90
11112;DHT22;5609;49.466;8.468;2023-04-01T00:08:49;10.40;99.90
11112;DHT22;5609;49.466;8.468;2023-04-01T00:11:16;10.40;99.90
11112;DHT22;5609;49.466;8.468;2023-04-01T00:13:43;10.30;99.90
11112;DHT22;5609;49.466;8.468;2023-04-01T00:16:12;10.30;99.90
11112;DHT22;5609;49.466;8.468;2023-04-01T00:18:39;10.40;99.90
11112;DHT22;5609;49.466;8.468;2023-04-01T00:21:06;10.30;99.90
11112;DHT22;5609;49.466;8.468;2023-04-01T00:23:33;10.30;99.90
11112;DHT22;5609;49.466;8.468;2023-04-01T00:26:00;10.30;99.90
11112;DHT22;5609;49.466;8.468;2023-04-01T00:28:28;10.30;99.90
11112;DHT22;5609;49.466;8.468;2023-04-01T00:30:55;10.30;99.90
11112;DHT22;5609;49.466;8.468;2023-04-01T00:33:23;10.30;99.90
11112;DHT22;5609;49.466;8.468;2023-04-01T00:35:50;10.40;99.90
11112;DHT22;5609;49.466;8.468;2023-04-01T00:38:17;10.40;99.90
11112;DHT22;5609;49.466;8.468;2023-04-01T00:40:45;10.40;99.90
11112;DHT22;5609;49.466;8.468;2023-04-01T00:43:14;10.40;99.90
11112;DHT22;5609;49.466;8.468;2023-04-01T00:45:44;10.40;99.90
11112;DHT22;5609;49.466;8.468;2023-04-01T00:48:14;10.40;99.90
11112;DHT22;5609;49.466;8.468;2023-04-01T00:50:46;10.50;99.90
11112;DHT22;5609;49.466;8.468;2023-04-01T00:53:16;10.60;99.90
11112;DHT22;5609;49.466;8.468;2023-04-01T00:55:49;10.60;99.90
11112;DHT22;5609;49.466;8.468;2023-04-01T00:58:18;10.60;99.90
11112;DHT22;5609;49.466;8.468;2023-04-01T01:00:48;10.50;99.90
11112;DHT22;5609;49.466;8.468;2023-04-01T01:03:16;10.50;99.90
11112;DHT22;5609;49.466;8.468;2023-04-01T01:06:07;10.60;99.90
11112;DHT22;5609;49.466;8.468;2023-04-01T01:08:48;10.60;99.90
11112;DHT22;5609;49.466;8.468;2023-04-01T01:11:22;10.60;99.90
11112;DHT22;5609;49.466;8.468;2023-04-01T01:13:58;10.60;99.90
11112;DHT22;5609;49.466;8.468;2023-04-01T01:16:30;10.70;99.90
11112;DHT22;5609;49.466;8.468;2023-04-01T01:19:08;10.70;99.90
11112;DHT22;5609;49.466;8.468;2023-04-01T01:22:03;10.70;99.90
11112;DHT22;5609;49.466;8.468;2023-04-01T01:24:51;10.70;99.90
11112;DHT22;5609;49.466;8.468;2023-04-01T01:27:22;10.80;99.90
11112;DHT22;5609;49.466;8.468;2023-04-01T01:33:01;10.70;99.90
11112;DHT22;5609;49.466;8.468;2023-04-01T01:35:37;10.70;99.90
11112;DHT22;5609;49.466;8.468;2023-04-01T01:38:07;10.70;99.90
11112;DHT22;5609;49.466;8.468;2023-04-01T01:40:37;10.80;99.90
11112;DHT22;5609;49.466;8.468;2023-04-01T01:43:08;10.80;99.90
11112;DHT22;5609;49.466;8.468;2023-04-01T01:45:40;10.80;99.90
11112;DHT22;5609;49.466;8.468;2023-04-01T01:48:10;10.80;99.90
11112;DHT22;5609;49.466;8.468;2023-04-01T01:50:39;10.70;99.90
11112;DHT22;5609;49.466;8.468;2023-04-01T01:53:09;10.70;99.90
11112;DHT22;5609;49.466;8.468;2023-04-01T01:55:37;10.70;99.90
11112;DHT22;5609;49.466;8.468;2023-04-01T01:58:07;10.70;99.90
11112;DHT22;5609;49.466;8.468;2023-04-01T02:00:36;10.80;99.90
11112;DHT22;5609;49.466;8.468;2023-04-01T02:03:04;10.90;99.90
11112;DHT22;5609;49.466;8.468;2023-04-01T02:05:31;10.90;99.90
11112;DHT22;5609;49.466;8.468;2023-04-01T02:08:05;10.80;99.90
11112;DHT22;5609;49.466;8.468;2023-04-01T02:10:37;10.90;99.90
11112;DHT22;5609;49.466;8.468;2023-04-01T02:13:11;10.90;99.90
11112;DHT22;5609;49.466;8.468;2023-04-01T02:15:44;10.90;99.90
11112;DHT22;5609;49.466;8.468;2023-04-01T02:18:13;10.90;99.90
11112;DHT22;5609;49.466;8.468;2023-04-01T02:20:42;10.90;99.90
11112;DHT22;5609;49.466;8.468;2023-04-01T02:23:11;10.90;99.90
11112;DHT22;5609;49.466;8.468;2023-04-01T02:25:39;10.90;99.90
11112;DHT22;5609;49.466;8.468;2023-04-01T02:28:08;10.90;99.90
11112;DHT22;5609;49.466;8.468;2023-04-01T02:30:37;10.90;99.90
11112;DHT22;5609;49.466;8.468;2023-04-01T02:33:06;10.80;99.90
11112;DHT22;5609;49.466;8.468;2023-04-01T02:35:33;10.80;99.90
11112;DHT22;5609;49.466;8.468;2023-04-01T02:38:01;10.80;99.90
11112;DHT22;5609;49.466;8.468;2023-04-01T02:40:40;10.90;99.90
11112;DHT22;5609;49.466;8.468;2023-04-01T02:43:06;10.80;99.90
11112;DHT22;5609;49.466;8.468;2023-04-01T02:45:33;10.80;99.90
11112;DHT22;5609;49.466;8.468;2023-04-01T02:48:00;10.80;99.90
11112;DHT22;5609;49.466;8.468;2023-04-01T02:50:27;10.80;99.90
11112;DHT22;5609;49.466;8.468;2023-04-01T02:52:53;10.80;99.90
11112;DHT22;5609;49.466;8.468;2023-04-01T02:55:20;10.70;99.90
11112;DHT22;5609;49.466;8.468;2023-04-01T02:57:48;10.70;99.90
11112;DHT22;5609;49.466;8.468;2023-04-01T03:00:16;10.60;99.90
11112;DHT22;5609;49.466;8.468;2023-04-01T03:02:43;10.70;99.90
11112;DHT22;5609;49.466;8.468;2023-04-01T03:05:10;10.60;99.90
11112;DHT22;5609;49.466;8.468;2023-04-01T03:07:38;10.60;99.90
11112;DHT22;5609;49.466;8.468;2023-04-01T03:10:06;10.60;99.90
11112;DHT22;5609;49.466;8.468;2023-04-01T03:12:32;10.70;99.90
11112;DHT22;5609;49.466;8.468;2023-04-01T03:15:01;10.60;99.90
11112;DHT22;5609;49.466;8.468;2023-04-01T03:17:27;10.60;99.90
11112;DHT22;5609;49.466;8.468;2023-04-01T03:19:54;10.60;99.90
11112;DHT22;5609;49.466;8.468;2023-04-01T03:22:21;10.60;99.90
11112;DHT22;5609;49.466;8.468;2023-04-01T03:24:48;10.60;99.90
11112;DHT22;5609;49.466;8.468;2023-04-01T03:27:15;10.60;99.90
11112;DHT22;5609;49.466;8.468;2023-04-01T03:29:42;10.60;99.90
11112;DHT22;5609;49.466;8.468;2023-04-01T03:32:10;10.50;99.90
11112;DHT22;5609;49.466;8.468;2023-04-01T03:34:37;10.50;99.90
11112;DHT22;5609;49.466;8.468;2023-04-01T03:37:03;10.50;99.90
11112;DHT22;5609;49.466;8.468;2023-04-01T03:39:31;10.60;99.90
11112;DHT22;5609;49.466;8.468;2023-04-01T03:41:58;10.60;99.90
11112;DHT22;5609;49.466;8.468;2023-04-01T03:44:25;10.50;99.90
11112;DHT22;5609;49.466;8.468;2023-04-01T03:46:52;10.50;99.90
11112;DHT22;5609;49.466;8.468;2023-04-01T03:49:20;10.50;99.90
11112;DHT22;5609;49.466;8.468;2023-04-01T03:51:47;10.50;99.90
11112;DHT22;5609;49.466;8.468;2023-04-01T03:54:13;10.50;99.90
11112;DHT22;5609;49.466;8.468;2023-04-01T03:56:40;10.50;99.90
11112;DHT22;5609;49.466;8.468;2023-04-01T03:59:08;10.60;99.90
11112;DHT22;5609;49.466;8.468;2023-04-01T04:01:34;10.60;99.90
11112;DHT22;5609;49.466;8.468;2023-04-01T04:04:01;10.50;99.90
11112;DHT22;5609;49.466;8.468;2023-04-01T04:06:30;10.60;99.90
11112;DHT22;5609;49.466;8.468;2023-04-01T04:08:56;10.50;99.90
11112;DHT22;5609;49.466;8.468;2023-04-01T04:11:23;10.50;99.90
11112;DHT22;5609;49.466;8.468;2023-04-01T04:13:51;10.50;99.90
11112;DHT22;5609;49.466;8.468;2023-04-01T04:16:18;10.50;99.90
11112;DHT22;5609;49.466;8.468;2023-04-01T04:18:45;10.50;99.90
11112;DHT22;5609;49.466;8.468;2023-04-01T04:21:13;10.50;99.90
11112;DHT22;5609;49.466;8.468;2023-04-01T04:23:42;10.60;99.90
11112;DHT22;5609;49.466;8.468;2023-04-01T04:26:11;10.50;99.90
11112;DHT22;5609;49.466;8.468;2023-04-01T04:28:38;10.50;99.90
11112;DHT22;5609;49.466;8.468;2023-04-01T04:31:05;10.70;99.90
11112;DHT22;5609;49.466;8.468;2023-04-01T04:33:32;10.70;99.90
11112;DHT22;5609;49.466;8.468;2023-04-01T04:35:59;10.70;99.90
11112;DHT22;5609;49.466;8.468;2023-04-01T04:38:26;10.70;99.90
11112;DHT22;5609;49.466;8.468;2023-04-01T04:40:54;10.70;99.90
11112;DHT22;5609;49.466;8.468;2023-04-01T04:43:21;10.70;99.90
11112;DHT22;5609;49.466;8.468;2023-04-01T04:45:48;10.70;99.90
11112;DHT22;5609;49.466;8.468;2023-04-01T04:48:16;10.70;99.90
11112;DHT22;5609;49.466;8.468;2023-04-01T04:50:44;10.60;99.90
11112;DHT22;5609;49.466;8.468;2023-04-01T04:53:11;10.60;99.90
11112;DHT22;5609;49.466;8.468;2023-04-01T04:55:42;10.60;99.90
11112;DHT22;5609;49.466;8.468;2023-04-01T04:58:11;10.50;99.90
11112;DHT22;5609;49.466;8.468;2023-04-01T05:00:37;10.40;99.90
11112;DHT22;5609;49.466;8.468;2023-04-01T05:03:04;10.30;99.90
11112;DHT22;5609;49.466;8.468;2023-04-01T05:05:31;10.30;99.90
11112;DHT22;5609;49.466;8.468;2023-04-01T05:07:58;10.30;99.90
11112;DHT22;5609;49.466;8.468;2023-04-01T05:10:24;10.30;99.90
11112;DHT22;5609;49.466;8.468;2023-04-01T05:12:51;10.30;99.90
11112;DHT22;5609;49.466;8.468;2023-04-01T05:15:19;10.30;99.90
11112;DHT22;5609;49.466;8.468;2023-04-01T05:17:46;10.30;99.90
11112;DHT22;5609;49.466;8.468;2023-04-01T05:20:13;10.20;99.90
11112;DHT22;5609;49.466;8.468;2023-04-01T05:22:40;10.20;99.90
11112;DHT22;5609;49.466;8.468;2023-04-01T05:25:07;10.10;99.90
11112;DHT22;5609;49.466;8.468;2023-04-01T05:27:34;10.20;99.90
11112;DHT22;5609;49.466;8.468;2023-04-01T05:30:01;10.20;99.90
11112;DHT22;5609;49.466;8.468;2023-04-01T05:32:30;10.20;99.90
11112;DHT22;5609;49.466;8.468;2023-04-01T05:34:57;10.30;99.90
11112;DHT22;5609;49.466;8.468;2023-04-01T05:37:24;10.20;99.90
11112;DHT22;5609;49.466;8.468;2023-04-01T05:39:51;10.20;99.90
11112;DHT22;5609;49.466;8.468;2023-04-01T05:42:17;10.20;99.90
11112;DHT22;5609;49.466;8.468;2023-04-01T05:44:44;10.30;99.90
11112;DHT22;5609;49.466;8.468;2023-04-01T05:47:11;10.30;99.90
11112;DHT22;5609;49.466;8.468;2023-04-01T05:49:39;10.30;99.90
11112;DHT22;5609;49.466;8.468;2023-04-01T05:52:06;10.30;99.90
11112;DHT22;5609;49.466;8.468;2023-04-01T05:54:33;10.30;99.90
11112;DHT22;5609;49.466;8.468;2023-04-01T05:56:59;10.40;99.90
11112;DHT22;5609;49.466;8.468;2023-04-01T05:59:26;10.30;99.90
11112;DHT22;5609;49.466;8.468;2023-04-01T06:01:53;10.40;99.90
11112;DHT22;5609;49.466;8.468;2023-04-01T06:04:20;10.40;99.90
11112;DHT22;5609;49.466;8.468;2023-04-01T06:06:48;10.40;99.90
11112;DHT22;5609;49.466;8.468;2023-04-01T06:09:16;10.40;99.90
11112;DHT22;5609;49.466;8.468;2023-04-01T06:11:55;10.30;99.90
11112;DHT22;5609;49.466;8.468;2023-04-01T06:14:33;10.40;99.90
11112;DHT22;5609;49.466;8.468;2023-04-01T06:17:13;10.40;99.90
11112;DHT22;5609;49.466;8.468;2023-04-01T06:19:50;10.40;99.90
11112;DHT22;5609;49.466;8.468;2023-04-01T06:22:30;10.50;99.90
11112;DHT22;5609;49.466;8.468;2023-04-01T06:28:12;10.40;99.90
11112;DHT22;5609;49.466;8.468;2023-04-01T06:30:43;10.40;99.90
11112;DHT22;5609;49.466;8.468;2023-04-01T06:33:35;10.40;99.90
11112;DHT22;5609;49.466;8.468;2023-04-01T06:36:15;10.40;99.90
11112;DHT22;5609;49.466;8.468;2023-04-01T06:39:03;10.40;99.90
11112;DHT22;5609;49.466;8.468;2023-04-01T06:41:58;10.40;99.90
11112;DHT22;5609;49.466;8.468;2023-04-01T06:44:35;10.50;99.90
11112;DHT22;5609;49.466;8.468;2023-04-01T06:47:12;10.50;99.90
11112;DHT22;5609;49.466;8.468;2023-04-01T06:49:48;10.50;99.90
11112;DHT22;5609;49.466;8.468;2023-04-01T06:52:23;10.50;99.90
11112;DHT22;5609;49.466;8.468;2023-04-01T06:55:00;10.50;99.90
11112;DHT22;5609;49.466;8.468;2023-04-01T06:57:32;10.50;99.90
11112;DHT22;5609;49.466;8.468;2023-04-01T07:00:02;10.50;99.90
11112;DHT22;5609;49.466;8.468;2023-04-01T07:02:37;10.50;99.90
11112;DHT22;5609;49.466;8.468;2023-04-01T07:05:06;10.60;99.90
11112;DHT22;5609;49.466;8.468;2023-04-01T07:07:36;10.60;99.90
11112;DHT22;5609;49.466;8.468;2023-04-01T07:10:10;10.60;99.90
11112;DHT22;5609;49.466;8.468;2023-04-01T07:12:43;10.70;99.90
11112;DHT22;5609;49.466;8.468;2023-04-01T07:15:18;10.70;99.90
11112;DHT22;5609;49.466;8.468;2023-04-01T07:17:48;10.70;99.90
11112;DHT22;5609;49.466;8.468;2023-04-01T07:20:22;10.70;99.90
11112;DHT22;5609;49.466;8.468;2023-04-01T07:22:53;10.70;99.90
11112;DHT22;5609;49.466;8.468;2023-04-01T07:25:25;10.80;99.90
11112;DHT22;5609;49.466;8.468;2023-04-01T07:27:53;10.90;99.90
11112;DHT22;5609;49.466;8.468;2023-04-01T07:30:23;10.90;99.90
11112;DHT22;5609;49.466;8.468;2023-04-01T07:32:54;11.00;99.90
11112;DHT22;5609;49.466;8.468;2023-04-01T07:35:26;11.00;99.90
11112;DHT22;5609;49.466;8.468;2023-04-01T07:38:11;11.10;99.90
11112;DHT22;5609;49.466;8.468;2023-04-01T07:40:48;11.10;99.90
11112;DHT22;5609;49.466;8.468;2023-04-01T07:43:32;11.10;99.90
11112;DHT22;5609;49.466;8.468;2023-04-01T07:46:07;11.10;99.90
11112;DHT22;5609;49.466;8.468;2023-04-01T07:48:41;11.20;99.90
11112;DHT22;5609;49.466;8.468;2023-04-01T07:51:13;11.10;99.90
11112;DHT22;5609;49.466;8.468;2023-04-01T07:53:45;11.10;99.90
11112;DHT22;5609;49.466;8.468;2023-04-01T07:56:20;11.10;99.90
11112;DHT22;5609;49.466;8.468;2023-04-01T07:58:56;11.10;99.90
11112;DHT22;5609;49.466;8.468;2023-04-01T08:01:30;11.20;99.90
11112;DHT22;5609;49.466;8.468;2023-04-01T08:04:15;11.20;99.90
11112;DHT22;5609;49.466;8.468;2023-04-01T08:06:48;11.20;99.90
11112;DHT22;5609;49.466;8.468;2023-04-01T08:09:25;11.20;99.90
11112;DHT22;5609;49.466;8.468;2023-04-01T08:12:03;11.10;99.90
11112;DHT22;5609;49.466;8.468;2023-04-01T08:14:36;11.10;99.90
11112;DHT22;5609;49.466;8.468;2023-04-01T08:17:13;11.10;99.90
11112;DHT22;5609;49.466;8.468;2023-04-01T08:19:53;11.10;99.90
11112;DHT22;5609;49.466;8.468;2023-04-01T08:22:26;11.10;99.90
11112;DHT22;5609;49.466;8.468;2023-04-01T08:24:56;11.10;99.90
11112;DHT22;5609;49.466;8.468;2023-04-01T08:27:30;11.00;99.90
11112;DHT22;5609;49.466;8.468;2023-04-01T08:30:01;11.10;99.90
11112;DHT22;5609;49.466;8.468;2023-04-01T08:32:32;11.00;99.90
11112;DHT22;5609;49.466;8.468;2023-04-01T08:35:08;11.00;99.90
11112;DHT22;5609;49.466;8.468;2023-04-01T08:37:39;11.00;99.90
11112;DHT22;5609;49.466;8.468;2023-04-01T08:40:39;11.00;99.90
11112;DHT22;5609;49.466;8.468;2023-04-01T08:43:19;11.00;99.90
11112;DHT22;5609;49.466;8.468;2023-04-01T08:46:03;11.00;99.90
11112;DHT22;5609;49.466;8.468;2023-04-01T08:48:48;11.00;99.90
11112;DHT22;5609;49.466;8.468;2023-04-01T08:51:42;11.00;99.90
11112;DHT22;5609;49.466;8.468;2023-04-01T08:54:33;11.00;99.90
11112;DHT22;5609;49.466;8.468;2023-04-01T08:57:08;11.00;99.90
11112;DHT22;5609;49.466;8.468;2023-04-01T09:00:04;11.10;99.90
11112;DHT22;5609;49.466;8.468;2023-04-01T09:02:51;11.10;99.90
11112;DHT22;5609;49.466;8.468;2023-04-01T09:05:35;11.10;99.90
11112;DHT22;5609;49.466;8.468;2023-04-01T09:08:11;11.10;99.90
11112;DHT22;5609;49.466;8.468;2023-04-01T09:10:59;11.10;99.90
11112;DHT22;5609;49.466;8.468;2023-04-01T09:19:26;10.90;99.90
11112;DHT22;5609;49.466;8.468;2023-04-01T09:22:09;11.00;99.90
11112;DHT22;5609;49.466;8.468;2023-04-01T09:24:56;11.00;99.90
11112;DHT22;5609;49.466;8.468;2023-04-01T09:27:28;11.00;99.90
11112;DHT22;5609;49.466;8.468;2023-04-01T09:30:22;11.00;99.90
11112;DHT22;5609;49.466;8.468;2023-04-01T09:33:10;11.00;99.90
11112;DHT22;5609;49.466;8.468;2023-04-01T09:35:46;11.00;99.90
11112;DHT22;5609;49.466;8.468;2023-04-01T09:38:28;11.00;99.90
11112;DHT22;5609;49.466;8.468;2023-04-01T09:40:56;11.10;99.90
11112;DHT22;5609;49.466;8.468;2023-04-01T09:43:30;11.20;99.90
11112;DHT22;5609;49.466;8.468;2023-04-01T09:46:14;11.10;99.90
11112;DHT22;5609;49.466;8.468;2023-04-01T09:49:21;11.20;99.90
11112;DHT22;5609;49.466;8.468;2023-04-01T09:52:01;11.20;99.90
11112;DHT22;5609;49.466;8.468;2023-04-01T09:54:44;11.20;99.90
11112;DHT22;5609;49.466;8.468;2023-04-01T09:57:44;11.30;99.90
11112;DHT22;5609;49.466;8.468;2023-04-01T10:01:01;11.40;99.90
11112;DHT22;5609;49.466;8.468;2023-04-01T10:03:59;11.40;99.90
11112;DHT22;5609;49.466;8.468;2023-04-01T10:16:08;11.70;99.90
11112;DHT22;5609;49.466;8.468;2023-04-01T10:19:10;11.80;99.90
11112;DHT22;5609;49.466;8.468;2023-04-01T10:28:32;12.00;99.90
11112;DHT22;5609;49.466;8.468;2023-04-01T10:34:43;12.00;99.90
11112;DHT22;5609;49.466;8.468;2023-04-01T10:37:29;11.90;99.90
11112;DHT22;5609;49.466;8.468;2023-04-01T10:43:25;11.90;99.90
11112;DHT22;5609;49.466;8.468;2023-04-01T10:46:18;12.00;99.90
11112;DHT22;5609;49.466;8.468;2023-04-01T10:52:28;12.00;99.90
11112;DHT22;5609;49.466;8.468;2023-04-01T10:58:40;12.00;99.90
11112;DHT22;5609;49.466;8.468;2023-04-01T11:01:27;12.00;99.90
11112;DHT22;5609;49.466;8.468;2023-04-01T11:04:37;12.00;99.90
11112;DHT22;5609;49.466;8.468;2023-04-01T11:10:31;12.20;99.90
11112;DHT22;5609;49.466;8.468;2023-04-01T11:13:50;12.20;99.90
11112;DHT22;5609;49.466;8.468;2023-04-01T11:22:33;12.20;99.90
11112;DHT22;5609;49.466;8.468;2023-04-01T11:28:18;12.20;99.90
11112;DHT22;5609;49.466;8.468;2023-04-01T11:31:01;12.20;99.90
11112;DHT22;5609;49.466;8.468;2023-04-01T11:33:34;12.30;99.90
11112;DHT22;5609;49.466;8.468;2023-04-01T11:36:19;12.20;99.90
11112;DHT22;5609;49.466;8.468;2023-04-01T11:39:03;12.10;99.90
11112;DHT22;5609;49.466;8.468;2023-04-01T11:41:39;12.20;99.90
11112;DHT22;5609;49.466;8.468;2023-04-01T11:44:17;12.30;99.90
11112;DHT22;5609;49.466;8.468;2023-04-01T11:46:55;12.30;99.90
11112;DHT22;5609;49.466;8.468;2023-04-01T11:49:36;12.30;99.90
11112;DHT22;5609;49.466;8.468;2023-04-01T11:52:17;12.30;99.90
11112;DHT22;5609;49.466;8.468;2023-04-01T11:54:56;12.40;99.90
11112;DHT22;5609;49.466;8.468;2023-04-01T11:57:56;12.40;99.90
11112;DHT22;5609;49.466;8.468;2023-04-01T12:00:57;12.50;99.90
11112;DHT22;5609;49.466;8.468;2023-04-01T12:03:44;12.50;99.90
11112;DHT22;5609;49.466;8.468;2023-04-01T12:06:19;12.50;99.90
11112;DHT22;5609;49.466;8.468;2023-04-01T12:08:56;12.60;99.90
11112;DHT22;5609;49.466;8.468;2023-04-01T12:11:32;12.60;99.90
11112;DHT22;5609;49.466;8.468;2023-04-01T12:14:09;12.70;99.90
11112;DHT22;5609;49.466;8.468;2023-04-01T12:16:51;12.80;99.90
11112;DHT22;5609;49.466;8.468;2023-04-01T12:19:26;12.80;99.90
11112;DHT22;5609;49.466;8.468;2023-04-01T12:22:08;12.80;99.90
11112;DHT22;5609;49.466;8.468;2023-04-01T12:24:47;12.80;99.90
11112;DHT22;5609;49.466;8.468;2023-04-01T12:27:29;12.80;99.90
11112;DHT22;5609;49.466;8.468;2023-04-01T12:30:30;12.80;99.90
11112;DHT22;5609;49.466;8.468;2023-04-01T12:33:10;12.90;99.90
11112;DHT22;5609;49.466;8.468;2023-04-01T12:35:51;12.80;99.90
11112;DHT22;5609;49.466;8.468;2023-04-01T12:38:26;12.90;99.90
11112;DHT22;5609;49.466;8.468;2023-04-01T12:41:07;12.90;99.90
11112;DHT22;5609;49.466;8.468;2023-04-01T12:43:52;13.00;99.90
11112;DHT22;5609;49.466;8.468;2023-04-01T12:46:26;13.00;99.90
11112;DHT22;5609;49.466;8.468;2023-04-01T12:49:24;13.00;99.90
11112;DHT22;5609;49.466;8.468;2023-04-01T12:52:05;13.10;99.90
11112;DHT22;5609;49.466;8.468;2023-04-01T12:55:00;13.10;99.90
11112;DHT22;5609;49.466;8.468;2023-04-01T12:57:45;13.10;99.90
11112;DHT22;5609;49.466;8.468;2023-04-01T13:00:31;13.10;99.90
11112;DHT22;5609;49.466;8.468;2023-04-01T13:03:12;13.10;99.90
11112;DHT22;5609;49.466;8.468;2023-04-01T13:06:07;13.10;99.90
11112;DHT22;5609;49.466;8.468;2023-04-01T13:08:44;13.10;99.90
11112;DHT22;5609;49.466;8.468;2023-04-01T13:11:21;13.20;99.90
11112;DHT22;5609;49.466;8.468;2023-04-01T13:14:21;13.20;99.90
11112;DHT22;5609;49.466;8.468;2023-04-01T13:16:54;13.10;99.90
11112;DHT22;5609;49.466;8.468;2023-04-01T13:19:28;13.10;99.90
11112;DHT22;5609;49.466;8.468;2023-04-01T13:22:03;13.10;99.90
11112;DHT22;5609;49.466;8.468;2023-04-01T13:24:41;13.00;99.90
11112;DHT22;5609;49.466;8.468;2023-04-01T13:27:16;13.00;99.90
11112;DHT22;5609;49.466;8.468;2023-04-01T13:30:02;12.90;99.90
11112;DHT22;5609;49.466;8.468;2023-04-01T13:32:34;12.90;99.90
11112;DHT22;5609;49.466;8.468;2023-04-01T13:35:15;13.00;99.90
11112;DHT22;5609;49.466;8.468;2023-04-01T13:37:53;13.00;99.90
11112;DHT22;5609;49.466;8.468;2023-04-01T13:40:32;13.10;99.90
11112;DHT22;5609;49.466;8.468;2023-04-01T13:43:04;13.10;99.90
11112;DHT22;5609;49.466;8.468;2023-04-01T13:45:46;13.10;99.90
11112;DHT22;5609;49.466;8.468;2023-04-01T13:48:27;13.10;99.90
11112;DHT22;5609;49.466;8.468;2023-04-01T13:51:04;13.10;99.90
11112;DHT22;5609;49.466;8.468;2023-04-01T13:53:50;13.10;99.90
11112;DHT22;5609;49.466;8.468;2023-04-01T13:56:34;13.10;99.90
11112;DHT22;5609;49.466;8.468;2023-04-01T13:59:27;13.00;99.90
11112;DHT22;5609;49.466;8.468;2023-04-01T14:02:07;13.00;99.90
11112;DHT22;5609;49.466;8.468;2023-04-01T14:04:50;12.80;99.90
11112;DHT22;5609;49.466;8.468;2023-04-01T14:07:32;12.80;99.90
11112;DHT22;5609;49.466;8.468;2023-04-01T14:10:11;12.80;99.90
11112;DHT22;5609;49.466;8.468;2023-04-01T14:12:49;12.80;99.90
11112;DHT22;5609;49.466;8.468;2023-04-01T14:15:33;12.80;99.90
11112;DHT22;5609;49.466;8.468;2023-04-01T14:18:33;12.80;99.90
11112;DHT22;5609;49.466;8.468;2023-04-01T14:21:23;12.80;99.90
11112;DHT22;5609;49.466;8.468;2023-04-01T14:24:15;12.60;99.90
11112;DHT22;5609;49.466;8.468;2023-04-01T14:27:17;12.60;99.90
11112;DHT22;5609;49.466;8.468;2023-04-01T14:29:58;12.60;99.90
11112;DHT22;5609;49.466;8.468;2023-04-01T14:32:33;12.60;99.90
11112;DHT22;5609;49.466;8.468;2023-04-01T14:35:21;12.70;99.90
11112;DHT22;5609;49.466;8.468;2023-04-01T14:38:23;12.70;99.90
11112;DHT22;5609;49.466;8.468;2023-04-01T14:40:56;12.80;99.90
11112;DHT22;5609;49.466;8.468;2023-04-01T14:43:40;12.80;99.90
11112;DHT22;5609;49.466;8.468;2023-04-01T14:46:23;12.80;99.90
11112;DHT22;5609;49.466;8.468;2023-04-01T14:48:57;12.80;99.90
11112;DHT22;5609;49.466;8.468;2023-04-01T14:51:32;12.80;99.90
11112;DHT22;5609;49.466;8.468;2023-04-01T14:54:04;12.80;99.90
11112;DHT22;5609;49.466;8.468;2023-04-01T14:56:36;12.80;99.90
11112;DHT22;5609;49.466;8.468;2023-04-01T14:59:08;12.70;99.90
11112;DHT22;5609;49.466;8.468;2023-04-01T15:01:40;12.70;99.90
11112;DHT22;5609;49.466;8.468;2023-04-01T15:04:23;12.70;99.90
11112;DHT22;5609;49.466;8.468;2023-04-01T15:07:02;12.60;99.90
11112;DHT22;5609;49.466;8.468;2023-04-01T15:09:39;12.60;99.90
11112;DHT22;5609;49.466;8.468;2023-04-01T15:12:17;12.60;99.90
11112;DHT22;5609;49.466;8.468;2023-04-01T15:15:02;12.50;99.90
11112;DHT22;5609;49.466;8.468;2023-04-01T15:17:47;12.50;99.90
11112;DHT22;5609;49.466;8.468;2023-04-01T15:20:30;12.60;99.90
11112;DHT22;5609;49.466;8.468;2023-04-01T15:23:11;12.50;99.90
11112;DHT22;5609;49.466;8.468;2023-04-01T15:26:03;12.60;99.90
11112;DHT22;5609;49.466;8.468;2023-04-01T15:31:12;12.60;99.90
11112;DHT22;5609;49.466;8.468;2023-04-01T15:33:57;12.60;99.90
11112;DHT22;5609;49.466;8.468;2023-04-01T15:36:33;12.60;99.90
11112;DHT22;5609;49.466;8.468;2023-04-01T15:39:12;12.70;99.90
11112;DHT22;5609;49.466;8.468;2023-04-01T15:41:48;12.70;99.90
11112;DHT22;5609;49.466;8.468;2023-04-01T15:44:48;12.80;99.90
11112;DHT22;5609;49.466;8.468;2023-04-01T15:47:32;12.80;99.90
11112;DHT22;5609;49.466;8.468;2023-04-01T15:53:34;12.80;99.90
11112;DHT22;5609;49.466;8.468;2023-04-01T15:56:15;12.80;99.90
11112;DHT22;5609;49.466;8.468;2023-04-01T15:58:54;12.90;99.90
11112;DHT22;5609;49.466;8.468;2023-04-01T16:01:31;12.80;99.90
11112;DHT22;5609;49.466;8.468;2023-04-01T16:04:27;12.90;99.90
11112;DHT22;5609;49.466;8.468;2023-04-01T16:07:10;12.80;99.90
11112;DHT22;5609;49.466;8.468;2023-04-01T16:10:09;12.70;99.90
11112;DHT22;5609;49.466;8.468;2023-04-01T16:12:53;12.60;99.90
11112;DHT22;5609;49.466;8.468;2023-04-01T16:15:27;12.60;99.90
11112;DHT22;5609;49.466;8.468;2023-04-01T16:18:13;12.60;99.90
11112;DHT22;5609;49.466;8.468;2023-04-01T16:20:49;12.60;99.90
11112;DHT22;5609;49.466;8.468;2023-04-01T16:23:22;12.50;99.90
11112;DHT22;5609;49.466;8.468;2023-04-01T16:25:54;12.40;99.90
11112;DHT22;5609;49.466;8.468;2023-04-01T16:28:30;12.40;99.90
11112;DHT22;5609;49.466;8.468;2023-04-01T16:31:03;12.40;99.90
11112;DHT22;5609;49.466;8.468;2023-04-01T16:33:40;12.40;99.90
11112;DHT22;5609;49.466;8.468;2023-04-01T16:36:19;12.40;99.90
11112;DHT22;5609;49.466;8.468;2023-04-01T16:38:50;12.40;99.90
11112;DHT22;5609;49.466;8.468;2023-04-01T16:41:23;12.40;99.90
11112;DHT22;5609;49.466;8.468;2023-04-01T16:43:56;12.40;99.90
11112;DHT22;5609;49.466;8.468;2023-04-01T16:46:34;12.40;99.90
11112;DHT22;5609;49.466;8.468;2023-04-01T16:49:25;12.40;99.90
11112;DHT22;5609;49.466;8.468;2023-04-01T16:52:00;12.30;99.90
11112;DHT22;5609;49.466;8.468;2023-04-01T16:54:35;12.40;99.90
11112;DHT22;5609;49.466;8.468;2023-04-01T16:57:11;12.30;99.90
11112;DHT22;5609;49.466;8.468;2023-04-01T16:59:47;12.30;99.90
11112;DHT22;5609;49.466;8.468;2023-04-01T17:02:16;12.30;99.90
11112;DHT22;5609;49.466;8.468;2023-04-01T17:04:45;12.40;99.90
11112;DHT22;5609;49.466;8.468;2023-04-01T17:07:24;12.40;99.90
11112;DHT22;5609;49.466;8.468;2023-04-01T17:10:05;12.50;99.90
11112;DHT22;5609;49.466;8.468;2023-04-01T17:12:40;12.80;99.90
11112;DHT22;5609;49.466;8.468;2023-04-01T17:15:19;12.90;99.90
11112;DHT22;5609;49.466;8.468;2023-04-01T17:17:52;12.80;99.90
11112;DHT22;5609;49.466;8.468;2023-04-01T17:20:32;12.80;99.90
11112;DHT22;5609;49.466;8.468;2023-04-01T17:23:16;13.60;99.90
11112;DHT22;5609;49.466;8.468;2023-04-01T17:25:59;14.30;99.90
11112;DHT22;5609;49.466;8.468;2023-04-01T17:28:38;14.00;99.90
11112;DHT22;5609;49.466;8.468;2023-04-01T17:31:11;13.70;99.90
11112;DHT22;5609;49.466;8.468;2023-04-01T17:34:09;13.30;99.90
11112;DHT22;5609;49.466;8.468;2023-04-01T17:36:48;13.00;99.90
11112;DHT22;5609;49.466;8.468;2023-04-01T17:39:37;12.70;99.90
11112;DHT22;5609;49.466;8.468;2023-04-01T17:42:11;12.50;99.90